Pagrindinis puslapis
METAR-TAF:

METAR-TAF

Oro uostai :

Marsa Alam, Egiptas

platuma: 25-33-25N, ilguma: 34-35-01E, Aukštis: 77 m

Dabartinis oras

Ataskaita buvo paskelbta 1 valandą ir 30 minutes, ne 07:00 UTC
Vėjas 22 kt iš Šiaurės
Temperatūra 37°C
Drėgmė 21%
Slėgis 1010 hPa
Matomumas 10 km arba daugiau
nėra debesų žemiau 1500 m ir nėra kamuolinių lietaus debesų

METAR: HEMA 240700Z 35022KT CAVOK 37/11 Q1010 NOSIG

Laikas: 10:30 (08:30 UTC)

Prognozė

Ataskaita buvo paskelbta 3 valandos ir 30 minutes, ne 05:00 UTC
Prognozė galioja nuo 24 metu 06 UTC su 25 metu 12 UTC
Vėjas 12 kt iš Šiaurės su gūsio iki 22 kt
Matomumas 10 km arba daugiau
nėra debesų žemiau 1500 m ir nėra kamuolinių lietaus debesų

TAF: HEMA 240500Z 2406/2512 36012G22KT CAVOK

Orai ataskaitas ir orų prognozės (METAR, TAF).

turimą stotys yra geltonos ir raudonos taškus žemėlapyje.

Perkelti pele per norėdami pamatyti stoties vardą.

Tada spustelėkite, norėdami matyti oro stebėjimo ir prognozės.

Norėdami pakeisti žemėlapį: spustelėkite ant žalios mygtukų su juodo kryžiaus žemyn,; žalią mygtuką su brūkšneliu, jei norite nutolinti; arba žalių rodyklių gretimoms žemėlapius.


METAR-TAF: